Time;durP1;ratioP1;P1;durP2;ratioP2;P2;SDS_P1;SDS_P2;PMS_P1;PMS_P2;Temp;Humidity;BMP_temperature;BMP_pressure;BME280_temperature;BME280_humidity;BME280_pressure;Samples;Min_cycle;Max_cycle;Signal;HPM_P1;HPM_P2
2023/12/22 00:00:22;;;;;;;10.80;7.25;;;;;;;2.30;67.48;97561.66;5091181;28;20124;-59
2023/12/22 00:02:48;;;;;;;12.07;7.25;;;;;;;2.27;66.98;97567.19;5103461;28;20027;-57
2023/12/22 00:05:13;;;;;;;8.90;6.78;;;;;;;2.21;67.57;97575.63;5093653;28;20416;-59
2023/12/22 00:07:39;;;;;;;9.45;6.88;;;;;;;2.01;67.68;97533.22;5094019;28;20059;-57
2023/12/22 00:10:04;;;;;;;9.98;7.35;;;;;;;2.17;68.30;97567.09;5086882;28;20101;-58
2023/12/22 00:12:30;;;;;;;10.40;7.28;;;;;;;2.11;67.92;97554.41;5085758;28;20040;-58
2023/12/22 00:14:56;;;;;;;10.05;7.05;;;;;;;2.12;68.00;97549.00;5083769;28;20024;-58
2023/12/22 00:17:21;;;;;;;11.75;7.13;;;;;;;2.07;67.82;97553.81;5074986;28;20081;-56
2023/12/22 00:19:47;;;;;;;9.93;7.38;;;;;;;2.00;68.27;97557.94;5081626;28;20036;-55
2023/12/22 00:22:12;;;;;;;11.02;6.55;;;;;;;1.94;67.96;97558.44;5083344;28;20367;-58
2023/12/22 00:24:38;;;;;;;11.13;7.18;;;;;;;1.58;68.08;97501.47;5093955;28;20020;-55
2023/12/22 00:27:04;;;;;;;8.90;6.80;;;;;;;1.83;67.84;97551.41;5088802;28;20029;-56
2023/12/22 00:29:30;;;;;;;10.20;7.28;;;;;;;1.81;67.81;97534.84;5080476;28;20118;-56
2023/12/22 00:31:56;;;;;;;8.13;5.63;;;;;;;1.88;66.93;97543.09;5084614;28;20119;-56
2023/12/22 00:34:22;;;;;;;10.52;7.30;;;;;;;1.80;66.49;97547.22;5086035;28;20111;-53
2023/12/22 00:36:47;;;;;;;8.25;6.38;;;;;;;1.74;66.83;97542.44;5093591;28;20028;-53
2023/12/22 00:39:13;;;;;;;8.68;6.63;;;;;;;1.72;67.02;97544.38;5079568;28;20036;-59
2023/12/22 00:41:39;;;;;;;9.70;6.28;;;;;;;1.65;66.89;97527.34;5087643;28;20447;-56
2023/12/22 00:44:04;;;;;;;8.35;6.32;;;;;;;1.67;67.06;97535.97;5079785;28;20035;-51
2023/12/22 00:46:30;;;;;;;9.57;6.68;;;;;;;1.64;66.99;97530.94;5085750;28;20040;-59
2023/12/22 00:48:55;;;;;;;9.00;6.50;;;;;;;1.64;66.88;97536.22;5083246;28;20054;-57
2023/12/22 00:51:21;;;;;;;9.07;6.28;;;;;;;1.40;66.61;97498.53;5078405;28;20432;-55
2023/12/22 00:53:47;;;;;;;9.10;6.43;;;;;;;1.65;66.20;97533.47;5084160;28;20093;-58
2023/12/22 00:56:13;;;;;;;8.32;6.22;;;;;;;1.56;66.83;97524.50;5093101;28;20032;-53
2023/12/22 00:58:39;;;;;;;7.93;5.88;;;;;;;1.54;66.24;97534.31;5093317;28;20234;-57
2023/12/22 01:01:05;;;;;;;9.90;6.70;;;;;;;1.58;66.05;97533.13;5093343;28;20032;-58
2023/12/22 01:03:31;;;;;;;11.23;6.97;;;;;;;1.53;65.77;97521.25;5093274;28;20416;-56
2023/12/22 01:05:56;;;;;;;10.18;6.57;;;;;;;1.50;65.64;97525.00;5093083;28;20043;-57
2023/12/22 01:08:21;;;;;;;10.70;6.60;;;;;;;1.52;65.87;97530.97;5092858;28;20035;-59
2023/12/22 01:10:47;;;;;;;9.15;6.07;;;;;;;1.42;66.32;97528.25;5093403;28;20059;-58
2023/12/22 01:13:13;;;;;;;7.80;5.57;;;;;;;1.38;66.11;97511.00;5093060;28;20032;-55
2023/12/22 01:15:38;;;;;;;9.25;6.22;;;;;;;1.35;66.17;97523.56;5092105;28;20028;-57
2023/12/22 01:18:04;;;;;;;10.65;6.57;;;;;;;1.27;66.34;97516.28;5092927;28;20020;-57
2023/12/22 01:20:30;;;;;;;9.48;6.20;;;;;;;1.31;66.53;97527.41;5093312;28;20032;-55
2023/12/22 01:22:56;;;;;;;9.27;7.03;;;;;;;1.29;66.67;97533.66;5092551;28;20344;-55
2023/12/22 01:25:21;;;;;;;10.95;6.82;;;;;;;1.33;66.63;97536.03;5076437;28;20374;-58
2023/12/22 01:27:48;;;;;;;9.75;6.47;;;;;;;1.29;66.50;97522.25;5088856;28;20051;-54
2023/12/22 01:30:14;;;;;;;8.93;6.13;;;;;;;1.42;65.95;97532.66;5086081;28;20043;-58
2023/12/22 01:32:39;;;;;;;10.07;6.30;;;;;;;1.50;65.71;97525.00;5083406;28;20028;-58
2023/12/22 01:35:09;;;;;;;13.40;6.95;;;;;;;1.29;66.05;97491.47;5092299;28;20032;-55
2023/12/22 01:37:37;;;;;;;9.38;6.38;;;;;;;1.55;66.45;97522.81;5079718;28;20037;-58
2023/12/22 01:40:03;;;;;;;10.55;6.78;;;;;;;1.45;66.22;97484.97;5088371;28;20035;-58
2023/12/22 01:42:29;;;;;;;11.95;7.22;;;;;;;1.74;65.42;97525.75;5090873;28;20377;-56
2023/12/22 01:44:55;;;;;;;10.98;5.97;;;;;;;1.55;66.00;97491.16;5079966;28;20443;-57
2023/12/22 01:47:20;;;;;;;11.35;7.75;;;;;;;1.82;66.10;97528.63;5086792;28;20035;-57
2023/12/22 01:49:47;;;;;;;12.60;7.82;;;;;;;1.82;66.47;97520.72;5082371;28;20036;-57
2023/12/22 01:52:13;;;;;;;12.35;7.40;;;;;;;1.86;66.01;97524.78;5092774;28;20336;-58
2023/12/22 01:54:38;;;;;;;15.98;7.72;;;;;;;1.86;66.64;97514.22;5088870;28;20093;-55
2023/12/22 01:57:04;;;;;;;17.30;9.27;;;;;;;1.84;65.82;97509.06;5080815;28;20335;-58
2023/12/22 01:59:34;;;;;;;17.67;10.15;;;;;;;1.85;66.50;97521.28;5092392;28;20039;-56
2023/12/22 02:02:03;;;;;;;14.27;8.52;;;;;;;1.86;66.14;97514.22;5092293;28;20370;-56
2023/12/22 02:04:30;;;;;;;17.23;9.57;;;;;;;1.71;66.42;97498.66;5092076;28;20028;-56
2023/12/22 02:07:01;;;;;;;18.50;8.52;;;;;;;1.68;66.61;97506.84;5092173;28;20124;-59
2023/12/22 02:09:26;;;;;;;15.85;9.25;;;;;;;1.72;66.71;97512.72;5092625;28;20028;-56
2023/12/22 02:11:52;;;;;;;13.40;8.13;;;;;;;1.40;67.20;97451.06;5093403;28;20131;-58
2023/12/22 02:14:18;;;;;;;18.02;8.75;;;;;;;1.66;67.18;97492.94;5096147;28;20411;-59
2023/12/22 02:17:07;;;;;;;14.88;8.52;;;;;;;1.78;67.22;97504.28;5096472;28;20097;-56
2023/12/22 02:19:39;;;;;;;17.60;8.80;;;;;;;1.72;67.62;97502.16;5095107;28;20111;-55
2023/12/22 02:22:06;;;;;;;14.45;8.05;;;;;;;1.78;66.54;97509.56;5096620;28;20298;-57
2023/12/22 02:24:32;;;;;;;14.30;8.40;;;;;;;1.76;66.76;97493.03;5095839;28;20107;-59
2023/12/22 02:27:13;;;;;;;12.85;8.27;;;;;;;1.89;66.74;97486.72;5091667;28;20457;-53
2023/12/22 02:29:47;;;;;;;14.32;8.50;;;;;;;1.86;66.50;97486.00;5083755;28;20075;-50
2023/12/22 02:32:21;;;;;;;13.98;7.97;;;;;;;1.95;66.99;97502.06;5077330;28;20470;-54
2023/12/22 02:34:50;;;;;;;13.95;7.82;;;;;;;1.88;66.16;97488.53;5096072;28;20113;-55
2023/12/22 02:37:18;;;;;;;11.93;7.13;;;;;;;2.03;65.71;97498.75;5094391;28;20132;-53
2023/12/22 02:39:44;;;;;;;13.73;8.43;;;;;;;1.78;65.79;97451.53;5079431;28;20469;-50
2023/12/22 02:42:11;;;;;;;11.65;7.75;;;;;;;1.95;65.94;97478.31;5096034;28;20044;-55
2023/12/22 02:44:38;;;;;;;14.05;7.70;;;;;;;1.52;65.74;97400.91;5083119;28;20033;-52
2023/12/22 02:47:03;;;;;;;12.30;8.10;;;;;;;1.98;65.88;97481.53;5088108;28;20420;-50
2023/12/22 02:49:29;;;;;;;11.57;8.02;;;;;;;2.01;66.19;97475.16;5079200;28;20036;-53
2023/12/22 02:51:54;;;;;;;10.35;7.03;;;;;;;2.14;66.04;97485.53;5087465;28;20044;-52
2023/12/22 02:54:20;;;;;;;11.45;8.02;;;;;;;2.08;66.21;97460.47;5093827;28;20420;-59
2023/12/22 02:56:47;;;;;;;12.13;8.23;;;;;;;2.13;65.81;97474.13;5085896;28;20021;-59
2023/12/22 02:59:12;;;;;;;11.95;7.57;;;;;;;2.10;66.46;97465.63;5093988;28;20059;-59
2023/12/22 03:01:38;;;;;;;12.32;7.82;;;;;;;2.11;66.33;97465.50;5079236;28;20048;-57
2023/12/22 03:04:03;;;;;;;12.80;8.27;;;;;;;2.10;66.22;97466.47;5086825;28;20060;-56
2023/12/22 03:06:29;;;;;;;11.05;7.95;;;;;;;1.68;66.15;97414.50;5075511;28;20060;-55
2023/12/22 03:08:55;;;;;;;11.10;7.32;;;;;;;2.07;66.04;97468.53;5085400;28;20100;-58
2023/12/22 03:11:20;;;;;;;10.13;7.80;;;;;;;2.01;66.46;97464.59;5090627;28;20047;-57
2023/12/22 03:13:46;;;;;;;12.05;8.23;;;;;;;2.00;66.70;97471.66;5095768;28;20107;-57
2023/12/22 03:16:11;;;;;;;13.32;7.95;;;;;;;1.99;66.31;97463.91;5090989;28;20032;-56
2023/12/22 03:18:40;;;;;;;11.80;8.02;;;;;;;1.99;66.41;97463.91;5080843;28;20029;-55
2023/12/22 03:21:05;;;;;;;9.85;7.57;;;;;;;2.05;65.87;97460.75;5074768;28;20131;-58
2023/12/22 03:23:31;;;;;;;13.50;8.13;;;;;;;2.01;66.02;97469.88;5078856;28;20103;-59
2023/12/22 03:25:56;;;;;;;12.43;8.23;;;;;;;1.98;66.36;97464.88;5075222;28;20037;-56
2023/12/22 03:28:22;;;;;;;11.70;8.07;;;;;;;1.97;66.62;97468.47;5086872;28;20047;-56
2023/12/22 03:30:47;;;;;;;11.73;7.22;;;;;;;1.97;66.14;97476.38;5087110;28;20060;-56
2023/12/22 03:33:13;;;;;;;12.43;8.80;;;;;;;1.94;66.02;97488.03;5081837;28;20086;-57
2023/12/22 03:35:40;;;;;;;10.85;8.10;;;;;;;1.91;66.50;97466.31;5074940;28;20052;-55
2023/12/22 03:38:05;;;;;;;12.52;8.57;;;;;;;1.96;66.14;97477.34;5075605;28;20039;-57
2023/12/22 03:40:31;;;;;;;13.55;8.38;;;;;;;1.85;66.30;97463.22;5075048;28;20052;-56
2023/12/22 03:42:56;;;;;;;14.20;8.75;;;;;;;1.94;66.26;97487.19;5090546;28;20028;-55
2023/12/22 03:45:22;;;;;;;11.68;8.38;;;;;;;1.93;66.01;97459.09;5095030;28;20039;-57
2023/12/22 03:47:47;;;;;;;11.63;8.05;;;;;;;1.92;66.31;97474.13;5095194;28;20046;-53
2023/12/22 03:50:13;;;;;;;12.63;8.60;;;;;;;1.88;66.35;97470.06;5094373;28;20066;-51
2023/12/22 03:52:38;;;;;;;11.40;8.50;;;;;;;1.88;66.54;97464.78;5095182;28;20039;-51
2023/12/22 03:55:04;;;;;;;12.93;8.55;;;;;;;1.86;66.77;97464.91;5095071;28;20085;-52
2023/12/22 03:57:30;;;;;;;14.18;8.93;;;;;;;1.88;66.47;97453.38;5094524;28;20085;-53
2023/12/22 03:59:56;;;;;;;15.05;9.27;;;;;;;1.88;66.59;97459.50;5094254;28;20040;-51
2023/12/22 04:02:22;;;;;;;12.43;8.60;;;;;;;1.92;65.74;97449.50;5094598;28;20063;-51
2023/12/22 04:04:47;;;;;;;13.65;9.00;;;;;;;1.83;66.28;97449.31;5095403;28;20475;-58
2023/12/22 04:07:13;;;;;;;10.48;7.50;;;;;;;1.96;65.68;97440.41;5094306;28;20169;-55
2023/12/22 04:09:38;;;;;;;12.20;8.57;;;;;;;1.84;66.18;97444.91;5094040;28;20036;-57
2023/12/22 04:12:05;;;;;;;12.27;8.68;;;;;;;1.78;66.55;97440.97;5093598;28;20454;-57
2023/12/22 04:14:30;;;;;;;15.57;9.02;;;;;;;1.80;66.35;97446.94;5093496;28;20123;-64
2023/12/22 04:16:57;;;;;;;11.98;8.10;;;;;;;1.85;65.64;97423.66;5093355;28;20111;-56
2023/12/22 04:19:22;;;;;;;11.98;8.70;;;;;;;1.50;66.00;97393.13;5089909;28;20035;-58
2023/12/22 04:21:48;;;;;;;12.57;8.15;;;;;;;1.76;66.17;97413.88;5092585;28;20036;-57
2023/12/22 04:24:13;;;;;;;12.20;8.43;;;;;;;1.80;66.15;97440.81;5076100;28;20029;-57
2023/12/22 04:26:39;;;;;;;12.00;8.55;;;;;;;1.77;65.78;97441.94;5073561;28;20119;-56
2023/12/22 04:29:05;;;;;;;12.73;8.13;;;;;;;1.80;65.77;97432.91;5089924;28;20044;-57
2023/12/22 04:31:32;;;;;;;10.32;7.63;;;;;;;1.58;65.00;97390.69;5082530;28;20068;-61
2023/12/22 04:33:57;;;;;;;11.77;7.95;;;;;;;1.77;65.55;97420.81;5077536;28;20032;-56
2023/12/22 04:36:23;;;;;;;10.52;7.93;;;;;;;1.51;65.34;97368.44;5092293;28;20035;-57
2023/12/22 04:38:48;;;;;;;12.00;8.65;;;;;;;1.74;65.60;97414.97;5080802;28;20028;-59
2023/12/22 04:41:14;;;;;;;11.60;8.38;;;;;;;1.78;65.27;97411.09;5087277;28;20028;-56
2023/12/22 04:43:39;;;;;;;11.73;8.65;;;;;;;1.82;65.56;97408.06;5078349;28;20473;-58
2023/12/22 04:46:05;;;;;;;12.45;8.45;;;;;;;1.77;65.19;97398.88;5086171;28;20379;-59
2023/12/22 04:48:32;;;;;;;12.48;9.13;;;;;;;1.69;65.54;97384.53;5073524;28;20036;-57
2023/12/22 04:50:58;;;;;;;13.30;8.32;;;;;;;1.72;65.40;97405.38;5073853;28;20158;-56
2023/12/22 04:53:24;;;;;;;16.85;8.77;;;;;;;1.68;65.43;97389.91;5074420;28;20115;-58
2023/12/22 04:55:50;;;;;;;13.18;9.25;;;;;;;1.71;65.24;97390.50;5075494;28;20348;-57
2023/12/22 04:58:15;;;;;;;13.20;8.93;;;;;;;1.68;65.62;97389.91;5074115;28;20037;-57
2023/12/22 05:00:41;;;;;;;13.73;9.63;;;;;;;1.69;65.86;97392.44;5074145;28;20028;-58
2023/12/22 05:03:06;;;;;;;12.98;8.98;;;;;;;1.76;65.58;97398.03;5073156;28;20031;-55
2023/12/22 05:05:32;;;;;;;14.95;9.70;;;;;;;1.61;65.71;97368.50;5072879;28;20028;-56
2023/12/22 05:07:57;;;;;;;13.10;9.40;;;;;;;1.75;65.48;97384.97;5091696;28;20028;-63
2023/12/22 05:10:23;;;;;;;15.35;9.73;;;;;;;1.79;65.47;97400.41;5075506;28;20037;-60
2023/12/22 05:12:48;;;;;;;15.45;10.00;;;;;;;1.76;65.41;97398.03;5071740;28;20067;-61
2023/12/22 05:15:14;;;;;;;13.73;9.40;;;;;;;1.49;65.69;97348.41;5072548;28;20453;-61
2023/12/22 05:17:40;;;;;;;15.55;10.63;;;;;;;1.56;65.73;97384.72;5079900;28;20036;-62
2023/12/22 05:20:06;;;;;;;14.98;9.65;;;;;;;1.70;65.38;97396.75;5092833;28;20462;-60
2023/12/22 05:22:32;;;;;;;14.15;9.45;;;;;;;1.69;65.58;97407.44;5091757;28;20343;-61
2023/12/22 05:24:58;;;;;;;16.00;10.50;;;;;;;1.58;65.61;97374.88;5091255;28;20081;-61
2023/12/22 05:27:24;;;;;;;15.63;10.95;;;;;;;1.67;65.47;97410.19;5092293;28;20089;-60
2023/12/22 05:29:50;;;;;;;14.93;10.43;;;;;;;1.72;65.13;97399.28;5092827;28;20120;-61
2023/12/22 05:32:15;;;;;;;17.33;10.82;;;;;;;1.74;65.10;97393.84;5091657;28;20040;-61
2023/12/22 05:34:41;;;;;;;17.27;10.88;;;;;;;1.70;65.51;97398.56;5092445;28;20409;-63
2023/12/22 05:37:06;;;;;;;16.38;10.82;;;;;;;1.64;65.69;97385.88;5092367;28;20059;-63
2023/12/22 05:39:32;;;;;;;17.85;11.20;;;;;;;1.67;65.90;97391.72;5092796;28;20036;-62
2023/12/22 05:41:58;;;;;;;18.30;12.20;;;;;;;1.76;65.44;97399.84;5076470;28;20046;-61
2023/12/22 05:44:24;;;;;;;19.33;12.20;;;;;;;1.64;65.76;97384.06;5072422;28;20036;-61
2023/12/22 05:46:50;;;;;;;17.75;12.00;;;;;;;1.55;66.29;97374.28;5070966;28;20028;-62
2023/12/22 05:49:16;;;;;;;18.25;12.68;;;;;;;1.67;65.86;97394.38;5072607;28;20451;-61
2023/12/22 05:51:41;;;;;;;16.30;10.27;;;;;;;1.89;65.64;97397.84;5072494;28;20024;-63
2023/12/22 05:54:08;;;;;;;18.00;12.90;;;;;;;1.83;65.72;97424.75;5072009;28;20468;-61
2023/12/22 05:56:34;;;;;;;21.85;13.85;;;;;;;1.73;66.12;97411.50;5086095;28;20060;-62
2023/12/22 05:59:00;;;;;;;23.88;15.13;;;;;;;1.78;65.57;97409.31;5092784;28;20042;-62
2023/12/22 06:01:25;;;;;;;21.20;14.57;;;;;;;1.79;64.98;97408.34;5092259;28;20311;-61
2023/12/22 06:03:51;;;;;;;22.67;15.38;;;;;;;1.72;65.88;97396.63;5090133;28;20024;-61
2023/12/22 06:06:18;;;;;;;20.60;14.65;;;;;;;1.74;65.50;97405.25;5092027;28;20054;-62
2023/12/22 06:08:43;;;;;;;23.13;15.18;;;;;;;1.69;65.89;97418.00;5092129;28;20039;-62
2023/12/22 06:11:09;;;;;;;22.25;14.95;;;;;;;1.74;65.40;97414.97;5092232;28;20028;-62
2023/12/22 06:13:35;;;;;;;22.02;14.48;;;;;;;1.78;65.78;97409.31;5092179;28;20070;-61
2023/12/22 06:16:01;;;;;;;22.67;13.82;;;;;;;1.81;65.45;97414.31;5091755;28;20031;-62
2023/12/22 06:18:26;;;;;;;25.15;14.73;;;;;;;1.70;65.59;97409.13;5090851;28;20097;-62
2023/12/22 06:20:52;;;;;;;24.70;14.93;;;;;;;1.65;66.24;97401.56;5091094;28;20036;-61
2023/12/22 06:23:18;;;;;;;23.35;14.85;;;;;;;1.77;66.05;97410.28;5092010;28;20032;-61
2023/12/22 06:25:46;;;;;;;26.42;14.90;;;;;;;1.71;65.49;97418.72;5092359;28;20038;-62
2023/12/22 06:28:12;;;;;;;20.65;14.68;;;;;;;1.75;66.22;97433.31;5079432;28;20116;-61
2023/12/22 06:30:38;;;;;;;22.45;14.82;;;;;;;1.72;65.84;97430.94;5073204;28;20095;-61
2023/12/22 06:33:03;;;;;;;26.17;15.88;;;;;;;1.67;65.99;97425.16;5072811;28;20060;-62
2023/12/22 06:35:29;;;;;;;20.38;14.05;;;;;;;1.72;65.82;97438.84;5071779;28;20032;-59
2023/12/22 06:37:56;;;;;;;22.60;15.45;;;;;;;1.75;65.59;97422.75;5071902;28;20107;-63
2023/12/22 06:40:21;;;;;;;19.60;14.23;;;;;;;1.73;66.27;97419.41;5073336;28;20068;-62
2023/12/22 06:42:47;;;;;;;22.63;14.45;;;;;;;1.77;65.39;97399.72;5071742;28;20071;-61
2023/12/22 06:45:12;;;;;;;22.52;14.52;;;;;;;1.78;65.89;97413.72;5071532;28;20037;-61
2023/12/22 06:47:38;;;;;;;22.15;14.43;;;;;;;1.78;66.39;97417.22;5071999;28;20025;-61
2023/12/22 06:50:04;;;;;;;21.73;14.38;;;;;;;1.76;65.90;97392.78;5071986;28;20037;-53
2023/12/22 06:52:31;;;;;;;20.50;13.55;;;;;;;1.90;66.13;97419.78;5091750;28;20032;-60
2023/12/22 06:54:56;;;;;;;22.25;14.20;;;;;;;1.98;65.67;97423.47;5098458;28;20041;-56
2023/12/22 06:57:22;;;;;;;14.88;10.40;;;;;;;2.09;65.19;97409.34;5097348;28;20036;-57
2023/12/22 06:59:50;;;;;;;17.25;12.52;;;;;;;2.15;64.89;97435.22;5108654;28;20046;-55
2023/12/22 07:02:16;;;;;;;19.25;12.77;;;;;;;2.19;64.54;97414.69;5101169;28;20381;-57
2023/12/22 07:05:06;;;;;;;22.38;12.80;;;;;;;2.32;64.66;97411.84;5095047;28;20032;-61
2023/12/22 07:07:33;;;;;;;19.25;13.15;;;;;;;2.21;64.27;97428.59;5076112;28;20028;-62
2023/12/22 07:09:58;;;;;;;19.95;12.30;;;;;;;2.23;64.28;97420.56;5075108;28;20055;-63
2023/12/22 07:12:24;;;;;;;17.77;12.32;;;;;;;2.15;64.66;97419.38;5074389;28;20029;-63
2023/12/22 07:14:49;;;;;;;18.00;12.63;;;;;;;2.25;64.02;97418.63;5075347;28;20036;-62
2023/12/22 07:17:15;;;;;;;17.35;12.15;;;;;;;2.26;63.80;97422.94;5074812;28;20055;-64
2023/12/22 07:19:41;;;;;;;19.58;12.60;;;;;;;2.18;64.31;97402.47;5074342;28;20044;-63
2023/12/22 07:22:07;;;;;;;17.17;12.60;;;;;;;2.29;64.40;97415.59;5088804;28;20523;-62
2023/12/22 07:24:32;;;;;;;14.65;11.55;;;;;;;2.38;64.34;97429.78;5095081;28;20043;-61
2023/12/22 07:26:58;;;;;;;14.25;10.35;;;;;;;2.46;63.49;97413.28;5095103;28;20024;-64
2023/12/22 07:29:24;;;;;;;20.55;11.95;;;;;;;2.34;63.65;97385.31;5087432;28;20127;-57
2023/12/22 07:31:50;;;;;;;14.25;9.63;;;;;;;2.52;63.19;97436.53;5088960;28;20048;-53
2023/12/22 07:34:17;;;;;;;14.48;10.23;;;;;;;2.56;63.25;97429.19;5084591;28;20039;-52
2023/12/22 07:36:42;;;;;;;13.63;10.35;;;;;;;2.56;62.84;97434.47;5087574;28;20048;-55
2023/12/22 07:39:09;;;;;;;14.98;10.45;;;;;;;2.60;63.17;97416.56;5088651;28;20054;-54
2023/12/22 07:41:35;;;;;;;13.35;9.50;;;;;;;2.56;62.86;97424.75;5073973;28;20032;-56
2023/12/22 07:44:01;;;;;;;16.42;10.73;;;;;;;2.46;63.12;97420.41;5082624;28;20031;-57
2023/12/22 07:46:28;;;;;;;17.52;10.75;;;;;;;2.47;62.86;97408.88;5081736;28;20115;-54
2023/12/22 07:48:54;;;;;;;14.20;9.85;;;;;;;2.45;63.30;97395.78;5093997;28;20359;-58
2023/12/22 07:51:20;;;;;;;16.27;10.32;;;;;;;2.51;63.09;97402.34;5091067;28;20679;-54
2023/12/22 07:53:45;;;;;;;14.10;9.80;;;;;;;2.62;63.03;97394.31;5077111;28;20100;-60
2023/12/22 07:56:11;;;;;;;15.50;10.63;;;;;;;2.72;62.94;97405.75;5074243;28;20025;-58
2023/12/22 07:58:37;;;;;;;12.55;8.38;;;;;;;2.89;61.77;97405.25;5073876;28;20109;-57
2023/12/22 08:01:05;;;;;;;13.93;9.82;;;;;;;2.62;62.45;97383.75;5089098;28;20046;-55
2023/12/22 08:03:31;;;;;;;13.95;9.32;;;;;;;2.61;62.04;97412.94;5094217;28;20028;-59
2023/12/22 08:05:57;;;;;;;13.38;9.60;;;;;;;2.65;62.17;97404.63;5080931;28;20469;-56
2023/12/22 08:08:22;;;;;;;14.93;10.27;;;;;;;2.68;61.78;97395.59;5093614;28;20032;-55
2023/12/22 08:10:48;;;;;;;18.67;10.75;;;;;;;2.75;62.21;97382.69;5092968;28;20350;-59
2023/12/22 08:13:13;;;;;;;14.95;10.73;;;;;;;2.85;61.55;97373.81;5094387;28;20024;-55
2023/12/22 08:15:39;;;;;;;14.73;10.40;;;;;;;2.94;61.85;97377.44;5089093;28;20296;-59
2023/12/22 08:18:05;;;;;;;14.50;10.05;;;;;;;3.08;61.34;97363.00;5093888;28;20108;-56
2023/12/22 08:20:31;;;;;;;16.10;10.43;;;;;;;3.17;61.11;97363.97;5094181;28;20104;-60
2023/12/22 08:22:56;;;;;;;14.80;11.38;;;;;;;3.27;60.94;97356.88;5094777;28;20024;-55
2023/12/22 08:25:22;;;;;;;16.10;11.32;;;;;;;3.40;60.50;97363.72;5073807;28;20036;-54
2023/12/22 08:27:47;;;;;;;14.88;10.27;;;;;;;3.52;59.30;97362.59;5073672;28;20037;-58
2023/12/22 08:30:16;;;;;;;16.90;11.40;;;;;;;3.46;59.41;97349.94;5084471;28;20374;-58
2023/12/22 08:32:42;;;;;;;17.60;11.15;;;;;;;3.46;59.65;97352.56;5094677;28;20447;-57
2023/12/22 08:35:08;;;;;;;13.75;10.65;;;;;;;3.50;59.18;97372.47;5093346;28;20074;-60
2023/12/22 08:37:34;;;;;;;16.55;11.15;;;;;;;3.49;59.44;97344.34;5092338;28;20060;-59
2023/12/22 08:39:59;;;;;;;16.08;11.27;;;;;;;3.61;58.76;97357.41;5084405;28;20400;-53
2023/12/22 08:42:26;;;;;;;13.70;9.65;;;;;;;3.63;58.31;97366.91;5090262;28;20040;-57
2023/12/22 08:44:51;;;;;;;15.18;10.80;;;;;;;3.44;58.87;97334.19;5079751;28;20028;-53
2023/12/22 08:47:17;;;;;;;14.35;9.65;;;;;;;3.56;58.17;97356.03;5077088;28;20067;-52
2023/12/22 08:49:43;;;;;;;15.02;11.10;;;;;;;3.24;58.84;97354.50;5087345;28;20035;-55
2023/12/22 08:52:08;;;;;;;14.65;10.50;;;;;;;3.22;59.05;97348.53;5087170;28;20028;-55
2023/12/22 08:54:35;;;;;;;16.77;10.70;;;;;;;3.28;59.28;97341.88;5083007;28;20060;-57
2023/12/22 08:57:02;;;;;;;15.25;10.23;;;;;;;3.13;58.97;97305.25;5072526;28;20048;-54
2023/12/22 08:59:27;;;;;;;15.23;10.80;;;;;;;3.43;58.55;97329.03;5080138;28;20077;-57
2023/12/22 09:01:53;;;;;;;15.15;10.05;;;;;;;3.55;57.54;97342.97;5081508;28;20324;-57
2023/12/22 09:04:20;;;;;;;16.05;10.77;;;;;;;3.54;58.18;97350.03;5090155;28;20084;-55
2023/12/22 09:06:46;;;;;;;13.68;10.27;;;;;;;3.38;57.73;97345.31;5077397;28;20518;-54
2023/12/22 09:09:11;;;;;;;17.83;11.35;;;;;;;3.46;57.72;97355.22;5092597;28;20032;-56
2023/12/22 09:11:37;;;;;;;15.52;11.73;;;;;;;3.30;58.37;97347.84;5088007;28;20024;-53
2023/12/22 09:14:05;;;;;;;17.08;11.85;;;;;;;3.28;58.53;97342.69;5080587;28;20034;-57
2023/12/22 09:16:31;;;;;;;19.55;13.15;;;;;;;3.20;58.32;97347.84;5070359;28;20328;-57
2023/12/22 09:18:56;;;;;;;22.95;15.25;;;;;;;3.33;57.93;97349.34;5070649;28;20035;-53
2023/12/22 09:21:22;;;;;;;25.45;16.80;;;;;;;3.24;58.37;97354.50;5070666;28;20373;-57
2023/12/22 09:23:49;;;;;;;23.73;16.83;;;;;;;3.20;58.83;97379.56;5089525;28;20116;-54
2023/12/22 09:26:15;;;;;;;26.00;17.77;;;;;;;3.24;58.07;97340.44;5091533;28;20021;-56
2023/12/22 09:28:42;;;;;;;26.70;17.45;;;;;;;3.12;58.24;97326.53;5087953;28;20063;-52
2023/12/22 09:31:08;;;;;;;30.05;18.42;;;;;;;3.04;58.40;97332.53;5091931;28;20043;-53
2023/12/22 09:33:33;;;;;;;32.60;18.75;;;;;;;3.08;58.93;97351.56;5090340;28;20409;-53
2023/12/22 09:35:59;;;;;;;29.25;17.67;;;;;;;3.06;58.56;97332.38;5107076;28;20036;-55
2023/12/22 09:38:25;;;;;;;26.75;16.92;;;;;;;2.91;58.29;97319.56;5094152;28;20086;-55
2023/12/22 09:40:51;;;;;;;26.77;17.10;;;;;;;2.94;59.16;97334.31;5092756;28;20036;-51
2023/12/22 09:43:19;;;;;;;28.98;18.02;;;;;;;3.07;58.81;97329.59;5086282;28;20474;-53
2023/12/22 09:45:49;;;;;;;28.45;18.38;;;;;;;3.15;58.21;97321.81;5071795;28;20740;-54
2023/12/22 09:48:17;;;;;;;23.98;15.75;;;;;;;3.21;58.39;97324.84;5079613;28;20028;-55
2023/12/22 09:50:47;;;;;;;30.83;18.40;;;;;;;3.14;58.12;97329.91;5081520;28;20411;-56
2023/12/22 09:53:13;;;;;;;26.48;16.48;;;;;;;2.98;58.00;97323.34;5082207;28;20411;-65
2023/12/22 09:55:44;;;;;;;24.55;16.90;;;;;;;3.07;58.40;97332.25;5078193;28;20037;-54
2023/12/22 09:58:11;;;;;;;24.25;16.27;;;;;;;2.95;58.21;97331.53;5075587;28;20131;-54
2023/12/22 10:00:38;;;;;;;22.85;16.40;;;;;;;2.89;58.26;97332.06;5107357;28;20039;-56
2023/12/22 10:03:09;;;;;;;23.42;15.15;;;;;;;2.70;58.87;97296.72;5087583;28;20039;-56
2023/12/22 10:05:34;;;;;;;22.42;15.85;;;;;;;2.73;58.92;97325.53;5081337;28;20032;-57
2023/12/22 10:08:01;;;;;;;21.98;15.18;;;;;;;2.72;59.10;97334.41;5084752;28;20089;-55
2023/12/22 10:10:31;;;;;;;25.65;15.90;;;;;;;2.55;59.10;97279.59;5100339;28;20143;-51
2023/12/22 10:12:59;;;;;;;22.23;15.35;;;;;;;2.62;59.24;97320.34;5085939;28;20040;-51
2023/12/22 10:15:24;;;;;;;18.77;12.77;;;;;;;2.62;58.70;97309.78;5072831;28;20432;-56
2023/12/22 10:17:51;;;;;;;19.63;14.38;;;;;;;2.63;58.78;97308.78;5074891;28;20051;-55
2023/12/22 10:20:17;;;;;;;21.42;13.95;;;;;;;2.60;58.90;97311.72;5091708;28;20050;-57
2023/12/22 10:22:42;;;;;;;20.83;14.60;;;;;;;2.56;59.38;97310.31;5091204;28;20024;-57
2023/12/22 10:25:08;;;;;;;18.35;12.10;;;;;;;2.40;58.45;97268.59;5091694;28;20097;-57
2023/12/22 10:27:36;;;;;;;21.25;13.95;;;;;;;2.54;59.23;97307.84;5086176;28;20047;-56
2023/12/22 10:30:03;;;;;;;21.50;14.57;;;;;;;2.55;59.14;97292.81;5092039;28;20052;-55
2023/12/22 10:32:30;;;;;;;20.20;13.68;;;;;;;2.48;59.52;97318.09;5092837;28;20040;-55
2023/12/22 10:34:59;;;;;;;18.73;13.23;;;;;;;2.60;59.69;97295.03;5079391;28;20028;-57
2023/12/22 10:37:25;;;;;;;20.25;13.57;;;;;;;2.61;59.27;97292.25;5078390;28;20032;-53
2023/12/22 10:39:54;;;;;;;19.23;13.10;;;;;;;2.56;59.38;97291.84;5085343;28;20047;-57
2023/12/22 10:42:20;;;;;;;20.48;13.63;;;;;;;2.55;59.25;97292.81;5073863;28;20035;-54
2023/12/22 10:44:46;;;;;;;23.00;14.05;;;;;;;2.55;59.26;97288.38;5073595;28;20024;-57
2023/12/22 10:47:12;;;;;;;18.52;13.65;;;;;;;2.50;59.63;97276.53;5074306;28;20032;-56
2023/12/22 10:49:37;;;;;;;16.92;11.73;;;;;;;2.54;59.74;97286.69;5069461;28;20049;-50
2023/12/22 10:52:03;;;;;;;17.50;11.80;;;;;;;2.38;60.29;97279.28;5115482;28;20081;-55
2023/12/22 10:54:29;;;;;;;19.42;12.80;;;;;;;2.18;60.46;97278.38;5102387;28;20031;-55
2023/12/22 10:57:02;;;;;;;17.58;12.85;;;;;;;1.95;61.04;97243.44;5106823;27;20336;-58
2023/12/22 10:59:30;;;;;;;17.67;11.65;;;;;;;2.14;60.60;97269.06;5074770;28;20038;-56
2023/12/22 11:01:57;;;;;;;15.82;11.82;;;;;;;2.19;60.87;97273.97;5074554;28;20040;-60
2023/12/22 11:04:29;;;;;;;17.08;11.93;;;;;;;2.19;60.90;97260.75;5093303;28;20457;-59
2023/12/22 11:06:57;;;;;;;17.00;12.35;;;;;;;2.08;60.57;97227.38;5086359;28;20024;-54
2023/12/22 11:09:26;;;;;;;16.83;12.10;;;;;;;2.18;60.23;97262.56;5078108;28;20052;-55
2023/12/22 11:11:52;;;;;;;16.42;11.68;;;;;;;2.12;60.97;97274.47;5082751;28;20126;-59
2023/12/22 11:14:19;;;;;;;18.10;11.55;;;;;;;2.14;60.97;97272.53;5078767;28;20059;-60
2023/12/22 11:16:48;;;;;;;16.65;10.27;;;;;;;2.21;60.65;97258.81;5074276;28;20107;-62
2023/12/22 11:19:15;;;;;;;17.63;11.50;;;;;;;1.99;60.17;97229.03;5074527;28;20024;-60
2023/12/22 11:21:41;;;;;;;15.50;11.25;;;;;;;2.21;60.63;97266.75;5083619;28;20101;-57
2023/12/22 11:24:08;;;;;;;17.50;11.00;;;;;;;1.91;60.93;97220.91;5094491;28;20040;-61